Time;durP1;ratioP1;P1;durP2;ratioP2;P2;SDS_P1;SDS_P2;PMS_P1;PMS_P2;Temp;Humidity;BMP_temperature;BMP_pressure;BME280_temperature;BME280_humidity;BME280_pressure;Samples;Min_cycle;Max_cycle;Signal;HPM_P1;HPM_P2
2023/12/27 00:00:44;;;;;;;5.50;2.72;;;11.10;11.90;;;;;;7389030;19;19919;-71
2023/12/27 00:03:10;;;;;;;6.18;3.17;;;10.90;13.00;;;;;;7397723;19;20343;-72
2023/12/27 00:05:36;;;;;;;5.95;2.70;;;11.00;14.30;;;;;;7388090;19;19938;-71
2023/12/27 00:08:01;;;;;;;6.60;2.92;;;10.90;13.20;;;;;;7390187;19;19945;-72
2023/12/27 00:10:27;;;;;;;6.53;2.47;;;10.80;13.80;;;;;;7394674;19;20291;-70
2023/12/27 00:12:53;;;;;;;5.00;2.22;;;10.70;13.00;;;;;;7395379;19;20251;-72
2023/12/27 00:15:19;;;;;;;5.13;2.08;;;10.70;11.80;;;;;;7386940;19;19982;-71
2023/12/27 00:17:44;;;;;;;5.28;2.30;;;10.80;10.30;;;;;;7389328;19;20489;-71
2023/12/27 00:20:11;;;;;;;5.85;1.60;;;10.80;10.10;;;;;;7388065;19;19936;-71
2023/12/27 00:22:37;;;;;;;11.13;2.42;;;10.80;9.50;;;;;;7394163;19;20228;-72
2023/12/27 00:25:03;;;;;;;4.40;1.83;;;10.70;10.00;;;;;;7403719;19;19922;-69
2023/12/27 00:27:29;;;;;;;5.38;1.95;;;10.60;9.40;;;;;;7404336;19;20343;-71
2023/12/27 00:29:55;;;;;;;5.57;1.38;;;10.70;8.80;;;;;;7397603;19;20693;-70
2023/12/27 00:32:21;;;;;;;4.55;1.70;;;10.70;7.00;;;;;;7401088;19;19955;-71
2023/12/27 00:34:49;;;;;;;5.20;1.83;;;10.60;7.40;;;;;;7403565;19;19982;-72
2023/12/27 00:37:15;;;;;;;5.18;1.98;;;10.50;7.70;;;;;;7400196;19;19975;-71
2023/12/27 00:39:41;;;;;;;4.45;1.75;;;10.50;7.50;;;;;;7403600;19;19990;-71
2023/12/27 00:42:08;;;;;;;4.63;2.05;;;10.50;7.20;;;;;;7402346;19;19919;-71
2023/12/27 00:44:34;;;;;;;5.43;2.20;;;10.50;7.40;;;;;;7401234;19;19915;-71
2023/12/27 00:47:00;;;;;;;5.50;2.08;;;10.70;7.20;;;;;;7403052;19;19967;-71
2023/12/27 00:49:26;;;;;;;4.70;1.85;;;10.60;6.90;;;;;;7396993;19;19935;-71
2023/12/27 00:51:51;;;;;;;4.80;2.20;;;10.70;6.60;;;;;;7400820;19;20342;-72
2023/12/27 00:54:18;;;;;;;5.18;1.88;;;10.70;6.10;;;;;;7397621;19;19918;-71
2023/12/27 00:56:44;;;;;;;3.88;1.30;;;10.70;5.60;;;;;;7405093;19;20506;-72
2023/12/27 00:59:10;;;;;;;5.07;1.52;;;10.80;3.80;;;;;;7402511;19;19955;-71
2023/12/27 01:01:36;;;;;;;3.17;1.30;;;10.80;3.70;;;;;;7403471;19;20367;-71
2023/12/27 01:04:02;;;;;;;3.30;1.20;;;10.80;3.60;;;;;;7402227;19;20593;-71
2023/12/27 01:06:28;;;;;;;3.25;1.00;;;10.70;1.30;;;;;;7401933;19;19974;-71
2023/12/27 01:08:54;;;;;;;3.97;1.40;;;10.70;1.00;;;;;;7403055;19;19918;-70
2023/12/27 01:11:20;;;;;;;3.30;0.80;;;10.70;1.10;;;;;;7401246;19;19922;-71
2023/12/27 01:13:45;;;;;;;3.20;0.90;;;10.60;1.00;;;;;;7393567;19;20650;-71
2023/12/27 01:16:11;;;;;;;3.25;1.08;;;10.50;1.00;;;;;;7395307;19;19915;-71
2023/12/27 01:18:37;;;;;;;2.33;0.63;;;10.50;1.00;;;;;;7392876;19;19929;-71
2023/12/27 01:21:03;;;;;;;3.17;0.73;;;10.50;1.00;;;;;;7395535;19;19926;-71
2023/12/27 01:23:30;;;;;;;2.55;0.63;;;10.40;1.00;;;;;;7394741;19;19926;-71
2023/12/27 01:25:55;;;;;;;2.90;0.80;;;10.40;1.00;;;;;;7398637;19;19911;-71
2023/12/27 01:28:21;;;;;;;2.67;0.88;;;10.50;1.00;;;;;;7394546;19;19949;-71
2023/12/27 01:30:47;;;;;;;2.55;0.73;;;10.60;1.00;;;;;;7398493;19;19947;-70
2023/12/27 01:33:13;;;;;;;2.47;0.80;;;10.50;1.00;;;;;;7393657;19;19914;-71
2023/12/27 01:35:38;;;;;;;3.28;1.02;;;10.30;1.00;;;;;;7401995;19;19921;-72
2023/12/27 01:38:04;;;;;;;3.30;0.90;;;10.20;1.00;;;;;;7397535;19;20250;-71
2023/12/27 01:40:30;;;;;;;3.72;1.20;;;10.20;1.00;;;;;;7400947;19;20224;-71
2023/12/27 01:42:56;;;;;;;2.55;0.90;;;10.10;1.00;;;;;;7401647;19;19918;-71
2023/12/27 01:45:21;;;;;;;3.13;0.82;;;10.10;1.00;;;;;;7400880;19;19969;-71
2023/12/27 01:47:48;;;;;;;2.95;0.90;;;10.30;1.00;;;;;;7401036;19;19986;-71
2023/12/27 01:50:15;;;;;;;2.72;0.80;;;10.40;1.00;;;;;;7401824;19;19911;-71
2023/12/27 01:52:41;;;;;;;2.85;0.90;;;10.30;1.00;;;;;;7400767;19;19923;-71
2023/12/27 01:55:09;;;;;;;2.67;0.80;;;10.20;1.00;;;;;;7402248;19;19930;-71
2023/12/27 01:57:38;;;;;;;3.10;1.10;;;10.20;1.00;;;;;;7393916;19;19923;-71
2023/12/27 02:00:05;;;;;;;2.50;0.80;;;10.30;1.00;;;;;;7396461;19;20226;-70
2023/12/27 02:02:31;;;;;;;4.18;0.95;;;10.20;1.00;;;;;;7398594;19;19995;-71
2023/12/27 02:04:57;;;;;;;2.47;0.77;;;10.20;1.00;;;;;;7401252;19;20371;-71
2023/12/27 02:07:23;;;;;;;2.88;1.00;;;10.20;1.00;;;;;;7398355;19;19934;-70
2023/12/27 02:09:49;;;;;;;2.03;1.00;;;10.10;1.00;;;;;;7401729;19;20248;-71
2023/12/27 02:12:29;;;;;;;3.20;1.15;;;10.20;1.00;;;;;;7393112;19;19926;-70
2023/12/27 02:14:55;;;;;;;2.65;0.80;;;10.50;1.00;;;;;;7400926;19;19937;-70
2023/12/27 02:17:22;;;;;;;3.10;0.95;;;10.40;1.00;;;;;;7395000;19;19922;-71
2023/12/27 02:19:49;;;;;;;2.47;1.00;;;10.50;1.00;;;;;;7397353;19;19914;-71
2023/12/27 02:22:22;;;;;;;2.97;1.02;;;10.30;1.00;;;;;;7397272;19;19918;-70
2023/12/27 02:24:50;;;;;;;3.05;1.20;;;10.30;1.00;;;;;;7400184;19;20523;-72
2023/12/27 02:27:18;;;;;;;3.70;1.30;;;10.30;1.00;;;;;;7398235;19;20331;-70
2023/12/27 02:29:43;;;;;;;4.07;1.02;;;10.20;1.00;;;;;;7398527;19;19922;-71
2023/12/27 02:32:09;;;;;;;4.53;1.67;;;10.20;1.00;;;;;;7398302;19;19919;-70
2023/12/27 02:34:35;;;;;;;4.10;1.42;;;10.10;1.00;;;;;;7398826;19;19918;-71
2023/12/27 02:37:01;;;;;;;5.65;1.50;;;10.10;1.00;;;;;;7396107;19;20567;-71
2023/12/27 02:39:26;;;;;;;2.70;0.75;;;10.20;1.00;;;;;;7398457;19;19919;-71
2023/12/27 02:41:52;;;;;;;2.75;0.75;;;10.10;1.00;;;;;;7402241;19;20598;-71
2023/12/27 02:44:18;;;;;;;3.67;0.70;;;10.20;1.00;;;;;;7399473;19;19942;-71
2023/12/27 02:46:44;;;;;;;2.28;0.63;;;10.00;1.00;;;;;;7397905;19;19956;-70
2023/12/27 02:49:10;;;;;;;2.15;0.70;;;9.90;1.00;;;;;;7398786;19;19914;-70
2023/12/27 02:51:35;;;;;;;2.45;0.75;;;9.90;1.00;;;;;;7400254;19;20308;-71
2023/12/27 02:54:01;;;;;;;3.53;1.08;;;10.00;1.00;;;;;;7397408;19;19907;-70
2023/12/27 02:56:27;;;;;;;2.83;0.73;;;10.00;1.00;;;;;;7398219;19;20689;-72
2023/12/27 02:58:53;;;;;;;3.00;1.00;;;10.00;1.00;;;;;;7399103;19;19962;-70
2023/12/27 03:01:18;;;;;;;4.28;1.15;;;10.00;1.00;;;;;;7397976;19;19923;-70
2023/12/27 03:03:44;;;;;;;2.00;0.60;;;9.90;1.00;;;;;;7397753;19;20058;-70
2023/12/27 03:06:10;;;;;;;2.40;0.80;;;9.80;1.00;;;;;;7399657;19;19997;-70
2023/12/27 03:08:37;;;;;;;2.83;0.70;;;9.90;1.00;;;;;;7397685;19;19922;-70
2023/12/27 03:11:03;;;;;;;2.25;0.60;;;10.00;1.00;;;;;;7395251;19;19926;-71
2023/12/27 03:13:28;;;;;;;2.53;0.63;;;10.00;1.00;;;;;;7394712;19;19978;-71
2023/12/27 03:15:54;;;;;;;3.45;0.85;;;10.10;1.00;;;;;;7395429;19;20654;-71
2023/12/27 03:18:20;;;;;;;2.13;0.60;;;10.20;1.00;;;;;;7394637;19;19907;-70
2023/12/27 03:20:45;;;;;;;2.28;0.77;;;10.20;1.00;;;;;;7399379;19;19922;-70
2023/12/27 03:23:13;;;;;;;2.63;0.80;;;10.00;1.00;;;;;;7393480;19;19919;-72
2023/12/27 03:25:39;;;;;;;1.75;0.50;;;10.20;1.00;;;;;;7400093;19;19926;-71
2023/12/27 03:28:04;;;;;;;2.58;0.75;;;10.00;1.00;;;;;;7394291;19;19914;-71
2023/12/27 03:30:30;;;;;;;2.72;0.82;;;10.00;1.00;;;;;;7398757;19;19922;-71
2023/12/27 03:32:56;;;;;;;2.85;0.80;;;9.90;1.00;;;;;;7399320;19;19919;-72
2023/12/27 03:35:23;;;;;;;2.65;0.90;;;10.00;1.00;;;;;;7396610;19;19930;-71
2023/12/27 03:37:49;;;;;;;2.95;0.80;;;10.00;1.00;;;;;;7393974;19;19915;-71
2023/12/27 03:40:15;;;;;;;4.00;0.80;;;10.00;1.00;;;;;;7397111;19;19925;-71
2023/12/27 03:42:41;;;;;;;1.33;0.40;;;9.80;1.00;;;;;;7396279;19;19990;-71
2023/12/27 03:45:07;;;;;;;2.47;0.65;;;9.80;1.00;;;;;;7394088;19;19926;-70
2023/12/27 03:47:33;;;;;;;2.03;0.70;;;9.80;1.00;;;;;;7395394;19;19937;-72
2023/12/27 03:50:02;;;;;;;2.80;0.90;;;9.80;1.00;;;;;;7397572;19;19979;-71
2023/12/27 03:52:27;;;;;;;2.55;1.33;;;10.00;1.00;;;;;;7392648;19;20779;-72
2023/12/27 03:54:54;;;;;;;2.47;0.60;;;9.90;1.00;;;;;;7398253;19;19925;-71
2023/12/27 03:57:20;;;;;;;2.67;0.73;;;9.90;1.00;;;;;;7396737;19;19927;-70
2023/12/27 03:59:46;;;;;;;2.50;0.70;;;9.80;1.00;;;;;;7403125;19;19941;-71
2023/12/27 04:02:11;;;;;;;3.40;0.80;;;9.90;1.00;;;;;;7401319;19;19907;-71
2023/12/27 04:04:40;;;;;;;2.53;0.55;;;9.90;1.00;;;;;;7403339;19;19970;-71
2023/12/27 04:07:06;;;;;;;1.55;0.50;;;9.90;1.00;;;;;;7399351;19;19914;-71
2023/12/27 04:09:32;;;;;;;2.92;0.52;;;9.90;1.00;;;;;;7403641;19;20350;-70
2023/12/27 04:11:57;;;;;;;1.50;0.40;;;10.00;1.00;;;;;;7401010;19;19922;-71
2023/12/27 04:14:23;;;;;;;1.88;0.45;;;10.00;1.00;;;;;;7402222;19;19922;-71
2023/12/27 04:16:49;;;;;;;2.05;0.57;;;10.10;1.00;;;;;;7400027;19;19923;-70
2023/12/27 04:19:14;;;;;;;1.55;0.50;;;10.20;1.00;;;;;;7399945;19;19926;-71
2023/12/27 04:21:42;;;;;;;2.20;0.70;;;10.20;1.00;;;;;;7400584;19;19918;-70
2023/12/27 04:24:08;;;;;;;;;;;10.10;1.00;;;;;;7402906;19;19915;-70
2023/12/27 04:26:39;;;;;;;2.17;0.90;;;10.10;1.00;;;;;;7401448;19;19914;-72
2023/12/27 04:29:09;;;;;;;3.35;0.60;;;10.40;1.00;;;;;;7400969;19;19914;-70
2023/12/27 04:31:37;;;;;;;1.92;0.57;;;10.30;1.00;;;;;;7396704;19;19949;-71
2023/12/27 04:34:02;;;;;;;1.85;0.77;;;10.30;1.00;;;;;;7374811;19;19945;-71
2023/12/27 04:36:28;;;;;;;2.00;0.60;;;10.20;1.00;;;;;;7403052;19;19914;-72
2023/12/27 04:38:54;;;;;;;2.33;0.63;;;10.10;1.00;;;;;;7399313;19;19914;-71
2023/12/27 04:41:20;;;;;;;1.98;0.68;;;10.00;1.00;;;;;;7400859;19;20414;-70
2023/12/27 04:43:45;;;;;;;1.70;0.57;;;9.90;1.00;;;;;;7401254;19;20354;-71
2023/12/27 04:46:11;;;;;;;2.25;0.63;;;9.90;1.00;;;;;;7401340;19;19930;-71
2023/12/27 04:48:37;;;;;;;2.58;0.60;;;9.80;1.00;;;;;;7400063;19;19923;-71
2023/12/27 04:51:03;;;;;;;1.77;0.65;;;9.70;1.00;;;;;;7401921;19;19918;-71
2023/12/27 04:53:28;;;;;;;1.55;0.65;;;9.70;1.00;;;;;;7398240;19;19918;-71
2023/12/27 04:55:54;;;;;;;1.95;0.70;;;9.80;1.00;;;;;;7397624;19;19927;-71
2023/12/27 04:58:20;;;;;;;2.15;0.90;;;9.70;1.00;;;;;;7395147;19;20591;-71
2023/12/27 05:00:46;;;;;;;1.98;0.60;;;9.80;1.00;;;;;;7403836;19;19918;-70
2023/12/27 05:03:11;;;;;;;1.63;0.50;;;9.80;1.00;;;;;;7398833;19;19919;-70
2023/12/27 05:05:37;;;;;;;2.63;0.70;;;9.80;1.00;;;;;;7397399;19;19922;-70
2023/12/27 05:08:03;;;;;;;3.20;0.52;;;9.70;1.00;;;;;;7400032;19;19982;-70
2023/12/27 05:10:30;;;;;;;2.85;1.20;;;9.70;1.00;;;;;;7398451;19;20009;-70
2023/12/27 05:12:56;;;;;;;2.97;0.70;;;9.60;1.00;;;;;;7401570;19;19918;-70
2023/12/27 05:15:22;;;;;;;2.80;1.20;;;9.60;1.00;;;;;;7398066;19;20260;-70
2023/12/27 05:17:48;;;;;;;2.53;0.73;;;9.40;1.00;;;;;;7402415;19;19918;-71
2023/12/27 05:20:13;;;;;;;2.58;0.80;;;9.60;1.00;;;;;;7398825;19;20535;-70
2023/12/27 05:22:40;;;;;;;2.20;0.73;;;9.50;1.00;;;;;;7401694;19;20276;-71
2023/12/27 05:25:08;;;;;;;2.22;0.75;;;9.40;1.00;;;;;;7396630;19;19922;-70
2023/12/27 05:27:34;;;;;;;2.55;0.82;;;9.50;1.00;;;;;;7402812;19;19946;-71
2023/12/27 05:30:02;;;;;;;3.30;1.13;;;9.60;1.00;;;;;;7394457;19;20339;-71
2023/12/27 05:32:28;;;;;;;5.63;1.90;;;9.60;1.00;;;;;;7400946;19;20258;-71
2023/12/27 05:34:54;;;;;;;3.35;1.10;;;9.60;1.00;;;;;;7397322;19;19922;-70
2023/12/27 05:37:20;;;;;;;5.38;1.00;;;9.50;1.00;;;;;;7400424;19;19918;-72
2023/12/27 05:39:47;;;;;;;3.40;1.00;;;9.50;1.00;;;;;;7398712;19;19915;-71
2023/12/27 05:42:14;;;;;;;4.03;1.13;;;9.70;1.00;;;;;;7400187;19;19922;-71
2023/12/27 05:44:40;;;;;;;2.88;1.02;;;9.80;1.00;;;;;;7395237;19;19922;-71
2023/12/27 05:47:06;;;;;;;4.07;1.23;;;9.70;1.00;;;;;;7393815;19;19915;-71
2023/12/27 05:49:32;;;;;;;3.60;1.33;;;9.70;1.00;;;;;;7396163;19;20278;-70
2023/12/27 05:51:57;;;;;;;4.13;1.27;;;9.70;1.00;;;;;;7396310;19;19918;-71
2023/12/27 05:54:25;;;;;;;3.08;1.08;;;9.60;1.00;;;;;;7393002;19;19932;-70
2023/12/27 05:56:54;;;;;;;3.38;1.23;;;9.60;1.00;;;;;;7398342;19;19925;-71
2023/12/27 05:59:20;;;;;;;3.28;1.00;;;9.60;1.00;;;;;;7396087;19;20606;-70
2023/12/27 06:01:55;;;;;;;2.42;0.70;;;9.60;1.00;;;;;;7398590;19;19922;-70
2023/12/27 06:04:22;;;;;;;1.88;0.50;;;9.60;1.00;;;;;;7395894;19;19926;-71
2023/12/27 06:06:49;;;;;;;2.83;0.60;;;9.60;1.00;;;;;;7398629;19;20354;-70
2023/12/27 06:09:16;;;;;;;;;;;9.70;1.00;;;;;;7402516;19;19926;-71
2023/12/27 06:11:41;;;;;;;2.28;0.60;;;9.70;1.00;;;;;;7397586;19;19928;-70
2023/12/27 06:14:07;;;;;;;2.28;0.63;;;9.70;1.00;;;;;;7399595;19;20318;-70
2023/12/27 06:16:33;;;;;;;1.35;0.50;;;9.80;1.00;;;;;;7400887;19;19932;-71
2023/12/27 06:19:02;;;;;;;2.30;0.70;;;9.90;1.00;;;;;;7402996;19;19918;-72
2023/12/27 06:21:28;;;;;;;2.17;0.80;;;9.90;1.00;;;;;;7396633;19;19919;-70
2023/12/27 06:23:55;;;;;;;2.42;0.60;;;9.80;1.00;;;;;;7396462;19;19918;-72
2023/12/27 06:26:21;;;;;;;1.40;0.50;;;9.80;1.00;;;;;;7396161;19;19978;-70
2023/12/27 06:28:47;;;;;;;4.03;0.80;;;9.80;1.00;;;;;;7398512;19;19953;-71
2023/12/27 06:31:14;;;;;;;1.55;0.60;;;9.90;1.00;;;;;;7398831;19;19915;-70
2023/12/27 06:33:40;;;;;;;2.97;1.48;;;9.70;1.00;;;;;;7397724;19;20275;-71
2023/12/27 06:36:07;;;;;;;2.53;0.82;;;9.70;1.00;;;;;;7397489;19;19926;-71
2023/12/27 06:38:33;;;;;;;5.28;1.10;;;9.70;1.00;;;;;;7397466;19;19941;-70
2023/12/27 06:41:00;;;;;;;2.13;0.70;;;9.60;1.00;;;;;;7398177;19;19926;-70
2023/12/27 06:43:26;;;;;;;2.00;0.63;;;9.60;1.00;;;;;;7393570;19;20066;-71
2023/12/27 06:45:52;;;;;;;2.53;0.55;;;9.70;1.00;;;;;;7398409;19;19922;-71
2023/12/27 06:48:18;;;;;;;2.40;0.70;;;9.70;1.00;;;;;;7396082;19;19922;-71
2023/12/27 06:50:44;;;;;;;2.53;0.65;;;9.60;1.00;;;;;;7398540;19;19914;-71
2023/12/27 06:53:10;;;;;;;6.07;1.20;;;9.60;1.00;;;;;;7393658;19;19990;-71
2023/12/27 06:55:36;;;;;;;3.78;0.80;;;9.70;1.00;;;;;;7396265;19;19922;-71
2023/12/27 06:58:03;;;;;;;1.75;0.55;;;9.60;1.00;;;;;;7396300;19;19996;-71
2023/12/27 07:00:28;;;;;;;1.65;0.50;;;9.80;1.00;;;;;;7398902;19;19926;-70
2023/12/27 07:02:54;;;;;;;2.55;0.55;;;9.70;1.00;;;;;;7395104;19;24471;-71
2023/12/27 07:05:20;;;;;;;4.00;0.85;;;9.70;1.00;;;;;;7394911;19;19978;-70
2023/12/27 07:07:46;;;;;;;4.00;1.05;;;9.80;1.00;;;;;;7398096;19;19930;-71
2023/12/27 07:10:13;;;;;;;4.72;1.27;;;9.90;1.00;;;;;;7394000;19;19925;-72
2023/12/27 07:12:39;;;;;;;3.33;0.95;;;9.90;1.00;;;;;;7396547;19;19926;-71
2023/12/27 07:15:07;;;;;;;4.40;1.27;;;9.70;1.00;;;;;;7396737;19;19919;-71
2023/12/27 07:17:33;;;;;;;5.03;1.20;;;9.70;1.00;;;;;;7397489;19;19930;-71
2023/12/27 07:20:00;;;;;;;3.53;1.08;;;9.70;1.00;;;;;;7395717;19;19954;-70
2023/12/27 07:22:26;;;;;;;4.22;1.20;;;9.80;1.00;;;;;;7397509;19;20299;-71
2023/12/27 07:24:52;;;;;;;2.55;0.80;;;9.90;1.00;;;;;;7398069;19;19957;-71
2023/12/27 07:27:18;;;;;;;4.13;1.42;;;9.80;1.00;;;;;;7394213;19;19915;-70
2023/12/27 07:29:44;;;;;;;3.47;1.23;;;9.80;1.00;;;;;;7396436;19;19918;-69
2023/12/27 07:32:09;;;;;;;3.15;0.88;;;9.80;1.00;;;;;;7397874;19;19922;-71
2023/12/27 07:34:35;;;;;;;3.58;0.80;;;9.70;1.00;;;;;;7402767;19;19914;-71
2023/12/27 07:37:01;;;;;;;3.40;0.95;;;9.60;1.00;;;;;;7403677;19;20332;-72
2023/12/27 07:39:27;;;;;;;3.38;0.90;;;9.70;1.00;;;;;;7400072;19;19944;-71
2023/12/27 07:41:53;;;;;;;2.70;0.73;;;9.70;1.00;;;;;;7404683;19;19935;-71
2023/12/27 07:44:20;;;;;;;2.53;0.95;;;10.00;1.00;;;;;;7400125;19;19918;-69
2023/12/27 07:46:46;;;;;;;3.70;1.00;;;10.10;1.00;;;;;;7382153;19;19919;-71
2023/12/27 07:49:11;;;;;;;4.82;1.20;;;10.20;1.00;;;;;;7401360;19;20315;-72
2023/12/27 07:51:37;;;;;;;3.08;1.05;;;10.10;1.00;;;;;;7382649;19;19989;-71
2023/12/27 07:54:03;;;;;;;9.32;1.83;;;10.10;1.00;;;;;;7401111;19;20371;-71
2023/12/27 07:56:29;;;;;;;6.68;1.60;;;10.10;1.00;;;;;;7401372;19;19919;-70
2023/12/27 07:58:55;;;;;;;6.25;1.35;;;10.30;1.00;;;;;;7402325;19;19994;-70
2023/12/27 08:01:21;;;;;;;6.03;1.40;;;10.30;1.00;;;;;;7392978;19;19927;-72
2023/12/27 08:03:47;;;;;;;3.45;1.02;;;10.40;1.00;;;;;;7402992;19;19915;-71
2023/12/27 08:06:13;;;;;;;5.55;1.73;;;10.40;1.00;;;;;;7398317;19;20330;-72
2023/12/27 08:08:39;;;;;;;3.55;1.30;;;10.50;1.00;;;;;;7395393;19;19925;-72
2023/12/27 08:11:05;;;;;;;4.93;1.70;;;10.60;1.00;;;;;;7388411;19;19918;-71
2023/12/27 08:13:37;;;;;;;4.35;1.02;;;10.60;1.00;;;;;;7399531;19;19978;-71
2023/12/27 08:16:03;;;;;;;6.05;1.40;;;10.80;1.00;;;;;;7397009;19;19910;-71
2023/12/27 08:18:29;;;;;;;8.10;2.40;;;12.10;1.00;;;;;;7403727;19;20674;-72
2023/12/27 08:20:55;;;;;;;9.40;3.53;;;13.90;1.00;;;;;;7402809;19;19925;-72
2023/12/27 08:23:21;;;;;;;9.65;2.95;;;15.20;1.00;;;;;;7401029;19;20339;-71
2023/12/27 08:25:48;;;;;;;6.32;2.28;;;16.40;1.00;;;;;;7402581;19;19922;-73
2023/12/27 08:28:15;;;;;;;7.15;2.28;;;17.60;1.00;;;;;;7396728;19;19936;-71
2023/12/27 08:30:41;;;;;;;9.32;2.28;;;18.20;1.00;;;;;;7397167;19;19922;-71
2023/12/27 08:33:07;;;;;;;12.52;2.55;;;19.00;1.00;;;;;;7395591;19;20266;-72
2023/12/27 08:35:36;;;;;;;8.98;2.95;;;19.40;1.00;;;;;;7398071;19;19929;-71
2023/12/27 08:38:03;;;;;;;20.77;4.53;;;19.90;1.00;;;;;;7395700;19;19986;-72
2023/12/27 08:40:29;;;;;;;18.90;3.72;;;20.30;1.00;;;;;;7395267;19;19922;-71
2023/12/27 08:42:55;;;;;;;13.13;3.05;;;20.60;1.00;;;;;;7399437;19;19941;-72
2023/12/27 08:45:21;;;;;;;11.90;3.33;;;21.00;1.00;;;;;;7388776;19;19919;-72
2023/12/27 08:47:47;;;;;;;14.07;2.95;;;21.20;1.00;;;;;;7396578;19;20441;-72
2023/12/27 08:50:12;;;;;;;10.80;3.00;;;21.20;1.00;;;;;;7401532;19;19915;-72
2023/12/27 08:52:39;;;;;;;9.52;3.25;;;20.20;1.00;;;;;;7400347;19;19918;-72
2023/12/27 08:55:10;;;;;;;12.20;3.80;;;18.90;1.00;;;;;;7394027;19;20378;-71
2023/12/27 08:57:37;;;;;;;12.15;3.45;;;17.90;1.00;;;;;;7400081;19;19974;-72
2023/12/27 09:00:10;;;;;;;13.73;3.42;;;16.70;1.00;;;;;;7364208;19;19926;-73
2023/12/27 09:02:39;;;;;;;16.58;4.20;;;15.90;1.00;;;;;;7396332;19;20077;-71
2023/12/27 09:05:06;;;;;;;7.97;3.55;;;15.20;1.00;;;;;;7395060;19;19937;-72
2023/12/27 09:07:32;;;;;;;13.60;4.88;;;14.90;1.00;;;;;;7397637;19;20370;-72
2023/12/27 09:09:58;;;;;;;13.52;4.80;;;14.60;1.00;;;;;;7403015;19;19919;-73
2023/12/27 09:12:25;;;;;;;6.05;2.60;;;14.70;1.00;;;;;;7395395;19;19924;-72
2023/12/27 09:14:51;;;;;;;16.60;3.97;;;14.60;1.00;;;;;;7392604;19;19914;-72
2023/12/27 09:17:17;;;;;;;14.40;4.95;;;14.70;1.00;;;;;;7389940;19;19919;-72
2023/12/27 09:19:43;;;;;;;11.48;4.05;;;14.70;1.00;;;;;;7393681;19;19919;-72
2023/12/27 09:22:09;;;;;;;15.02;4.47;;;14.80;1.00;;;;;;7398901;19;19926;-72
2023/12/27 09:24:35;;;;;;;11.77;4.05;;;14.90;1.00;;;;;;7399487;19;19926;-73
2023/12/27 09:27:01;;;;;;;11.57;4.53;;;15.20;1.00;;;;;;7399942;19;20002;-73
2023/12/27 09:29:27;;;;;;;13.10;5.18;;;15.50;1.00;;;;;;7398892;19;19956;-72
2023/12/27 09:31:52;;;;;;;14.25;5.30;;;16.10;1.00;;;;;;7399570;19;20473;-73
2023/12/27 09:34:18;;;;;;;12.90;5.43;;;16.50;1.00;;;;;;7397904;19;20440;-72
2023/12/27 09:36:44;;;;;;;13.88;5.32;;;16.50;1.00;;;;;;7399175;19;19997;-71
2023/12/27 09:39:12;;;;;;;12.35;5.38;;;16.00;1.00;;;;;;7398485;19;19914;-73
2023/12/27 09:41:38;;;;;;;16.98;5.95;;;16.20;1.00;;;;;;7395773;19;19986;-71
2023/12/27 09:44:06;;;;;;;15.48;6.05;;;16.30;1.00;;;;;;7399648;19;19923;-73
2023/12/27 09:46:34;;;;;;;12.88;5.88;;;16.70;1.00;;;;;;7399604;19;19919;-72
2023/12/27 09:48:59;;;;;;;13.10;5.50;;;16.80;1.00;;;;;;7400416;19;19939;-71
2023/12/27 09:51:26;;;;;;;17.05;5.90;;;17.00;1.00;;;;;;7395239;19;19922;-72
2023/12/27 09:53:52;;;;;;;;;;;17.00;1.00;;;;;;7399078;19;19918;-71
2023/12/27 09:56:22;;;;;;;11.48;4.70;;;17.20;1.00;;;;;;7395359;19;19921;-71
2023/12/27 09:58:57;;;;;;;10.52;4.80;;;17.10;1.00;;;;;;7400267;19;19926;-71
2023/12/27 10:01:26;;;;;;;7.53;4.35;;;17.20;1.00;;;;;;7397574;19;19931;-72
2023/12/27 10:04:04;;;;;;;11.93;5.20;;;17.70;1.00;;;;;;7401094;19;20234;-71
2023/12/27 10:06:49;;;;;;;14.73;5.43;;;17.60;1.00;;;;;;7398123;19;19923;-72
2023/12/27 10:09:19;;;;;;;14.85;5.60;;;18.20;1.00;;;;;;7395830;19;20571;-71
2023/12/27 10:11:45;;;;;;;14.48;5.35;;;18.50;1.00;;;;;;7398439;19;19919;-71
2023/12/27 10:14:13;;;;;;;14.00;5.63;;;18.60;1.00;;;;;;7356469;19;19932;-73
2023/12/27 10:16:39;;;;;;;14.50;5.32;;;18.80;1.00;;;;;;7392653;19;19921;-72
2023/12/27 10:19:05;;;;;;;12.52;4.78;;;19.10;1.00;;;;;;7396785;19;19918;-73
2023/12/27 10:21:41;;;;;;;;;;;19.10;1.00;;;;;;7398868;19;20344;-71
2023/12/27 10:24:08;;;;;;;13.25;3.67;;;19.30;1.00;;;;;;7386114;19;19925;-73
2023/12/27 10:26:35;;;;;;;11.05;4.40;;;19.20;1.00;;;;;;7397066;19;19941;-72
2023/12/27 10:29:01;;;;;;;13.68;5.10;;;19.30;1.00;;;;;;7388723;19;19919;-72
2023/12/27 10:31:27;;;;;;;10.98;4.63;;;19.20;1.00;;;;;;7396063;19;19922;-72
2023/12/27 10:33:54;;;;;;;11.38;4.93;;;19.80;1.00;;;;;;7390641;19;19918;-71
2023/12/27 10:36:20;;;;;;;12.60;4.90;;;20.00;1.00;;;;;;7392797;19;20403;-72
2023/12/27 10:38:46;;;;;;;16.75;5.47;;;20.10;1.00;;;;;;7394925;19;19919;-71
2023/12/27 10:41:12;;;;;;;12.23;5.38;;;20.40;1.00;;;;;;7372935;19;19941;-73
2023/12/27 10:43:38;;;;;;;15.60;5.32;;;20.30;1.00;;;;;;7388101;19;19927;-73
2023/12/27 10:46:08;;;;;;;15.02;5.18;;;20.70;1.00;;;;;;7385526;19;19918;-72
2023/12/27 10:48:40;;;;;;;15.98;5.85;;;20.90;1.00;;;;;;7396422;19;19918;-72
2023/12/27 10:51:09;;;;;;;16.02;6.38;;;21.20;1.00;;;;;;7394391;19;19930;-71
2023/12/27 10:53:36;;;;;;;19.60;5.75;;;21.20;1.00;;;;;;7397410;19;19939;-73
2023/12/27 10:56:03;;;;;;;;;;;21.40;1.00;;;;;;7398747;19;19994;-72
2023/12/27 10:58:33;;;;;;;21.45;6.35;;;21.50;1.00;;;;;;7387977;19;19935;-72
2023/12/27 11:01:00;;;;;;;17.20;5.50;;;22.00;1.00;;;;;;7391345;19;19917;-71
2023/12/27 11:03:29;;;;;;;13.48;6.95;;;21.90;1.00;;;;;;7393622;19;19918;-71
2023/12/27 11:05:57;;;;;;;15.80;5.95;;;22.30;1.00;;;;;;7396027;19;19910;-72
2023/12/27 11:08:24;;;;;;;12.82;5.75;;;22.40;1.00;;;;;;7393934;19;19941;-72
2023/12/27 11:10:50;;;;;;;11.05;5.32;;;22.40;1.00;;;;;;7396765;19;20536;-72
2023/12/27 11:13:19;;;;;;;12.98;6.00;;;21.10;1.00;;;;;;7384652;19;20369;-72
2023/12/27 11:16:03;;;;;;;13.82;5.60;;;21.50;1.00;;;;;;7386369;19;19919;-72
2023/12/27 11:18:31;;;;;;;16.33;5.65;;;22.40;1.00;;;;;;7398953;19;20317;-72
2023/12/27 11:20:57;;;;;;;18.98;7.72;;;23.00;1.00;;;;;;7391471;19;19923;-72
2023/12/27 11:23:24;;;;;;;20.98;7.63;;;23.70;1.00;;;;;;7391056;19;19949;-72
2023/12/27 11:25:52;;;;;;;16.13;7.43;;;23.80;1.00;;;;;;7388343;19;19926;-72
2023/12/27 11:28:19;;;;;;;17.88;8.10;;;24.00;1.00;;;;;;7366094;19;19982;-71
2023/12/27 11:30:46;;;;;;;12.93;6.95;;;24.30;1.00;;;;;;7391258;19;19928;-71
2023/12/27 11:33:26;;;;;;;15.52;6.53;;;24.10;1.00;;;;;;7386094;19;19922;-72
2023/12/27 11:35:52;;;;;;;14.27;6.53;;;24.30;1.00;;;;;;7398616;19;19922;-71
2023/12/27 11:38:21;;;;;;;12.32;5.65;;;24.20;1.00;;;;;;7385003;19;20001;-72
2023/12/27 11:40:59;;;;;;;13.27;5.78;;;23.60;1.00;;;;;;7385151;19;20294;-71
2023/12/27 11:43:26;;;;;;;11.38;5.03;;;23.80;1.00;;;;;;7374237;19;19922;-71
2023/12/27 11:45:58;;;;;;;10.00;5.32;;;24.00;1.00;;;;;;7393461;19;19911;-70
2023/12/27 11:48:25;;;;;;;10.05;4.65;;;24.00;1.00;;;;;;7387188;19;20416;-72
2023/12/27 11:50:51;;;;;;;13.57;4.85;;;23.70;1.00;;;;;;7395766;19;19922;-73
2023/12/27 11:53:19;;;;;;;10.38;4.53;;;24.00;1.00;;;;;;7386575;19;20245;-72
2023/12/27 11:55:46;;;;;;;10.32;4.45;;;24.20;1.00;;;;;;7385520;19;20227;-72
2023/12/27 11:58:15;;;;;;;11.00;4.82;;;25.00;1.00;;;;;;7389967;19;21007;-73
2023/12/27 12:00:41;;;;;;;10.05;4.63;;;25.10;1.00;;;;;;7387776;19;20387;-72
2023/12/27 12:03:25;;;;;;;9.77;4.85;;;25.40;1.00;;;;;;7382094;19;19935;-71
2023/12/27 12:05:53;;;;;;;14.65;4.38;;;26.10;1.00;;;;;;7385262;19;19919;-72
2023/12/27 12:08:42;;;;;;;8.27;5.32;;;26.20;1.00;;;;;;7389215;19;20509;-73
2023/12/27 12:11:12;;;;;;;8.55;4.32;;;25.70;1.00;;;;;;7382113;19;20354;-71
2023/12/27 12:13:39;;;;;;;8.35;4.30;;;25.00;1.00;;;;;;7380248;19;19946;-72
2023/12/27 12:16:08;;;;;;;14.48;5.32;;;25.60;1.00;;;;;;7388134;19;19919;-72
2023/12/27 12:18:35;;;;;;;13.93;4.38;;;25.60;1.00;;;;;;7397527;19;20251;-72
2023/12/27 12:21:01;;;;;;;9.25;3.75;;;26.00;1.00;;;;;;7404278;19;19949;-71
2023/12/27 12:23:31;;;;;;;9.68;4.22;;;25.50;1.00;;;;;;7391155;19;19918;-71
2023/12/27 12:26:02;;;;;;;12.10;4.07;;;24.70;1.00;;;;;;7381289;19;19930;-73
2023/12/27 12:28:28;;;;;;;9.48;4.10;;;24.00;1.00;;;;;;7396473;19;19941;-72
2023/12/27 12:30:58;;;;;;;15.48;4.18;;;25.30;1.00;;;;;;7396056;19;20627;-72
2023/12/27 12:33:24;;;;;;;15.13;4.90;;;24.80;1.00;;;;;;7386797;19;20311;-71
2023/12/27 12:35:55;;;;;;;11.43;3.38;;;24.50;1.00;;;;;;7398331;19;19947;-72
2023/12/27 12:38:21;;;;;;;6.47;3.03;;;24.20;1.00;;;;;;7395771;19;19951;-73
2023/12/27 12:40:48;;;;;;;9.45;3.97;;;23.30;1.00;;;;;;7402363;19;20272;-72
2023/12/27 12:43:17;;;;;;;9.35;2.83;;;23.20;1.00;;;;;;7379460;19;19914;-72
2023/12/27 12:45:44;;;;;;;7.63;3.00;;;23.30;1.00;;;;;;7402007;19;19918;-71
2023/12/27 12:48:11;;;;;;;7.45;2.90;;;23.00;1.00;;;;;;7398799;19;20370;-71
2023/12/27 12:50:37;;;;;;;8.23;3.33;;;23.00;1.00;;;;;;7402034;19;19921;-72
2023/12/27 12:53:17;;;;;;;6.68;2.65;;;24.00;1.00;;;;;;7401493;19;19914;-71
2023/12/27 12:55:44;;;;;;;7.18;2.90;;;24.50;1.00;;;;;;7402809;19;19930;-72